Time;durP1;ratioP1;P1;durP2;ratioP2;P2;SDS_P1;SDS_P2;PMS_P1;PMS_P2;Temp;Humidity;BMP_temperature;BMP_pressure;BME280_temperature;BME280_humidity;BME280_pressure;Samples;Min_cycle;Max_cycle;Signal;HPM_P1;HPM_P2
2023/08/05 00:00:12;;;;;;;4.57;4.18;;;14.20;99.90;;;;;;4968997;28;20386;-83
2023/08/05 00:02:38;;;;;;;4.38;3.85;;;14.30;99.90;;;;;;4968739;28;20407;-83
2023/08/05 00:05:04;;;;;;;4.17;3.77;;;14.20;99.90;;;;;;4984529;28;20394;-83
2023/08/05 00:07:30;;;;;;;5.03;4.35;;;14.30;99.90;;;;;;4960844;28;20445;-83
2023/08/05 00:09:56;;;;;;;5.70;4.90;;;14.10;99.90;;;;;;4984443;28;20807;-83
2023/08/05 00:12:21;;;;;;;4.63;4.15;;;13.80;99.90;;;;;;4965306;28;20469;-84
2023/08/05 00:14:47;;;;;;;5.95;4.22;;;14.20;99.90;;;;;;4961465;28;20401;-84
2023/08/05 00:17:13;;;;;;;4.20;3.80;;;13.70;99.90;;;;;;4961192;28;20400;-83
2023/08/05 00:19:38;;;;;;;4.83;4.33;;;13.50;99.90;;;;;;4979412;28;20405;-84
2023/08/05 00:22:04;;;;;;;4.30;3.90;;;14.00;99.90;;;;;;4979363;28;20407;-84
2023/08/05 00:24:29;;;;;;;6.27;3.90;;;15.80;99.90;;;;;;4960055;28;20403;-83
2023/08/05 00:26:55;;;;;;;5.60;3.77;;;14.10;99.90;;;;;;4971425;28;20487;-82
2023/08/05 00:29:20;;;;;;;5.57;4.05;;;14.20;99.90;;;;;;4978475;28;20886;-83
2023/08/05 00:31:46;;;;;;;4.20;3.63;;;14.00;99.90;;;;;;4979874;28;20408;-82
2023/08/05 00:34:11;;;;;;;4.80;4.07;;;13.60;99.90;;;;;;4963268;28;20387;-83
2023/08/05 00:36:37;;;;;;;11.13;4.18;;;14.00;99.90;;;;;;4979344;28;20894;-83
2023/08/05 00:39:02;;;;;;;4.43;4.03;;;13.50;99.90;;;;;;4979553;28;20408;-83
2023/08/05 00:41:28;;;;;;;4.77;4.17;;;14.10;99.90;;;;;;4962247;28;20388;-83
2023/08/05 00:43:53;;;;;;;4.80;4.30;;;13.70;99.90;;;;;;4978950;28;20841;-82
2023/08/05 00:46:22;;;;;;;5.00;4.30;;;14.20;99.90;;;;;;4954241;28;20400;-83
2023/08/05 00:48:52;;;;;;;4.90;4.22;;;13.70;99.90;;;;;;4966654;28;20398;-83
2023/08/05 00:51:21;;;;;;;3.90;3.30;;;13.60;99.90;;;;;;4973002;28;20480;-83
2023/08/05 00:53:48;;;;;;;4.18;3.70;;;13.70;99.90;;;;;;4987690;28;20498;-83
2023/08/05 00:56:15;;;;;;;5.10;3.85;;;13.50;99.90;;;;;;4953541;28;20412;-83
2023/08/05 00:58:42;;;;;;;4.32;3.70;;;13.70;99.90;;;;;;4971555;28;20400;-83
2023/08/05 01:01:08;;;;;;;4.60;3.88;;;13.40;99.90;;;;;;4971417;28;20479;-83
2023/08/05 01:03:34;;;;;;;5.45;3.80;;;13.60;99.90;;;;;;4977382;28;20410;-83
2023/08/05 01:06:00;;;;;;;5.32;4.15;;;13.80;99.90;;;;;;4960316;28;21004;-82
2023/08/05 01:08:27;;;;;;;5.82;3.97;;;13.70;99.90;;;;;;4973497;28;20398;-82
2023/08/05 01:10:53;;;;;;;5.38;4.00;;;12.80;99.90;;;;;;4973432;28;20827;-83
2023/08/05 01:13:20;;;;;;;4.97;3.80;;;13.70;99.90;;;;;;4991006;28;20854;-83
2023/08/05 01:15:45;;;;;;;5.28;3.40;;;13.70;99.90;;;;;;4973099;28;20418;-82
2023/08/05 01:18:13;;;;;;;8.82;4.30;;;13.70;99.90;;;;;;4973477;28;20452;-82
2023/08/05 01:20:45;;;;;;;4.22;3.83;;;13.70;99.90;;;;;;4967712;28;20482;-82
2023/08/05 01:23:19;;;;;;;4.47;4.07;;;13.70;99.90;;;;;;4971434;28;20388;-82
2023/08/05 01:25:45;;;;;;;5.60;4.18;;;13.60;99.90;;;;;;4971163;28;20396;-83
2023/08/05 01:28:13;;;;;;;6.60;3.80;;;13.50;99.90;;;;;;4970807;28;20399;-82
2023/08/05 01:30:41;;;;;;;4.90;4.40;;;13.00;99.90;;;;;;4975005;28;20466;-82
2023/08/05 01:33:08;;;;;;;4.60;4.20;;;13.70;99.90;;;;;;4973227;28;20406;-83
2023/08/05 01:35:33;;;;;;;6.38;3.97;;;14.00;99.90;;;;;;4971735;28;20730;-82
2023/08/05 01:37:59;;;;;;;5.50;4.00;;;13.50;99.90;;;;;;4971118;28;20408;-82
2023/08/05 01:40:28;;;;;;;4.60;4.10;;;13.80;99.90;;;;;;4971035;28;20888;-83
2023/08/05 01:42:57;;;;;;;4.90;3.92;;;15.00;99.90;;;;;;4961675;28;20792;-83
2023/08/05 01:45:23;;;;;;;5.10;3.40;;;13.80;99.90;;;;;;4986428;28;20431;-83
2023/08/05 01:47:49;;;;;;;5.13;3.67;;;13.30;99.90;;;;;;4973989;28;20400;-81
2023/08/05 01:50:15;;;;;;;4.10;3.70;;;13.40;99.90;;;;;;4982716;28;20392;-82
2023/08/05 01:52:40;;;;;;;4.10;3.70;;;13.40;99.90;;;;;;4979232;28;20392;-82
2023/08/05 01:55:06;;;;;;;5.53;4.00;;;13.90;99.90;;;;;;4984807;28;20417;-82
2023/08/05 01:57:31;;;;;;;3.63;3.33;;;14.00;99.90;;;;;;4983297;28;20410;-83
2023/08/05 01:59:57;;;;;;;5.80;3.63;;;13.40;99.90;;;;;;4979441;28;20383;-82
2023/08/05 02:02:23;;;;;;;4.93;4.00;;;13.90;99.90;;;;;;4978392;28;20739;-83
2023/08/05 02:04:48;;;;;;;6.38;3.85;;;13.50;99.90;;;;;;4962007;28;20384;-82
2023/08/05 02:07:14;;;;;;;3.83;3.53;;;13.90;99.90;;;;;;4959066;28;20400;-82
2023/08/05 02:09:39;;;;;;;3.65;3.00;;;14.00;99.90;;;;;;4994699;28;20719;-83
2023/08/05 02:12:05;;;;;;;5.00;3.60;;;14.00;99.90;;;;;;4976596;28;20403;-82
2023/08/05 02:14:30;;;;;;;4.50;4.03;;;14.00;99.90;;;;;;4959216;28;20395;-83
2023/08/05 02:16:56;;;;;;;6.07;4.00;;;14.00;99.90;;;;;;4978463;28;20419;-83
2023/08/05 02:19:22;;;;;;;4.23;3.83;;;14.00;99.90;;;;;;4982594;28;20553;-80
2023/08/05 02:21:47;;;;;;;4.30;3.90;;;13.70;99.90;;;;;;4981370;28;20451;-82
2023/08/05 02:24:13;;;;;;;4.80;3.93;;;14.00;99.90;;;;;;5002074;28;20398;-80
2023/08/05 02:26:38;;;;;;;5.57;4.20;;;14.00;99.90;;;;;;4970425;28;20416;-82
2023/08/05 02:29:04;;;;;;;5.10;3.60;;;13.70;99.90;;;;;;4975998;28;20399;-82
2023/08/05 02:31:29;;;;;;;4.27;3.87;;;13.90;99.90;;;;;;4956454;28;20737;-82
2023/08/05 02:33:55;;;;;;;3.80;3.50;;;13.80;99.90;;;;;;4974572;28;20775;-82
2023/08/05 02:36:21;;;;;;;5.40;4.07;;;14.00;99.90;;;;;;4994043;28;20414;-82
2023/08/05 02:38:47;;;;;;;4.40;3.67;;;13.90;99.90;;;;;;5043292;23;20430;-80
2023/08/05 02:41:12;;;;;;;5.10;3.83;;;14.00;99.90;;;;;;4997261;28;20398;-80
2023/08/05 02:43:38;;;;;;;4.47;4.07;;;14.20;99.90;;;;;;4999006;28;20378;-80
2023/08/05 02:46:03;;;;;;;4.50;4.00;;;13.80;99.90;;;;;;4997428;28;20398;-80
2023/08/05 02:48:29;;;;;;;4.30;3.70;;;14.20;99.90;;;;;;4983620;28;20395;-80
2023/08/05 02:50:55;;;;;;;4.70;3.80;;;13.80;99.90;;;;;;4974441;28;21084;-80
2023/08/05 02:53:20;;;;;;;4.20;3.70;;;14.20;99.90;;;;;;4958510;28;20397;-80
2023/08/05 02:55:46;;;;;;;4.13;3.40;;;14.20;99.90;;;;;;4958229;29;20886;-80
2023/08/05 02:58:15;;;;;;;4.40;3.73;;;13.90;99.90;;;;;;4962950;28;20841;-80
2023/08/05 03:00:40;;;;;;;5.22;4.32;;;14.30;99.90;;;;;;4977937;28;20419;-80
2023/08/05 03:03:08;;;;;;;6.32;4.20;;;14.30;99.90;;;;;;4961802;28;20402;-80
2023/08/05 03:05:34;;;;;;;4.40;4.10;;;14.30;99.90;;;;;;4937850;29;20463;-79
2023/08/05 03:07:59;;;;;;;4.50;3.50;;;13.80;99.90;;;;;;4938029;29;20388;-79
2023/08/05 03:10:25;;;;;;;4.70;4.20;;;14.10;99.90;;;;;;4936722;29;20400;-78
2023/08/05 03:12:50;;;;;;;4.40;4.00;;;13.90;99.90;;;;;;4955386;28;20407;-78
2023/08/05 03:15:16;;;;;;;5.25;4.10;;;14.00;99.90;;;;;;4974075;28;20392;-77
2023/08/05 03:17:42;;;;;;;5.53;4.60;;;14.00;99.90;;;;;;4954716;28;20393;-77
2023/08/05 03:20:23;;;;;;;6.73;4.23;;;13.80;99.90;;;;;;4954093;29;20919;-77
2023/08/05 03:22:48;;;;;;;4.97;4.10;;;13.50;99.90;;;;;;4953530;28;20714;-78
2023/08/05 03:25:14;;;;;;;5.22;3.75;;;13.80;99.90;;;;;;4953553;28;20386;-77
2023/08/05 03:27:39;;;;;;;4.90;4.10;;;14.00;99.90;;;;;;4970985;28;20394;-77
2023/08/05 03:30:05;;;;;;;4.97;4.23;;;14.00;99.90;;;;;;4969548;28;20419;-77
2023/08/05 03:32:31;;;;;;;7.43;4.45;;;13.90;99.90;;;;;;4953287;28;20500;-77
2023/08/05 03:34:56;;;;;;;4.20;3.70;;;14.00;99.90;;;;;;4953708;29;20476;-77
2023/08/05 03:37:22;;;;;;;4.78;4.28;;;13.90;99.90;;;;;;4953616;28;20777;-77
2023/08/05 03:39:48;;;;;;;5.00;3.90;;;13.90;99.90;;;;;;4953527;29;20392;-77
2023/08/05 03:42:13;;;;;;;4.70;4.30;;;13.80;99.90;;;;;;4953010;29;20405;-77
2023/08/05 03:44:42;;;;;;;4.60;4.20;;;13.80;99.90;;;;;;4953117;29;20429;-77
2023/08/05 03:47:08;;;;;;;5.13;3.70;;;13.80;99.90;;;;;;4953241;29;20405;-77
2023/08/05 03:49:33;;;;;;;4.03;3.72;;;13.80;99.90;;;;;;4951895;29;20394;-77
2023/08/05 03:51:59;;;;;;;4.40;4.00;;;13.20;99.90;;;;;;4953684;29;20417;-77
2023/08/05 03:54:25;;;;;;;4.20;3.80;;;13.80;99.90;;;;;;4952298;28;20759;-77
2023/08/05 03:56:51;;;;;;;4.20;3.80;;;13.60;99.90;;;;;;4951967;28;20416;-77
2023/08/05 03:59:16;;;;;;;5.50;4.35;;;13.70;99.90;;;;;;4954031;28;20940;-77
2023/08/05 04:01:43;;;;;;;5.20;4.50;;;13.70;99.90;;;;;;4971525;28;20408;-77
2023/08/05 04:04:08;;;;;;;6.18;4.15;;;13.60;99.90;;;;;;4961742;28;20397;-78
2023/08/05 04:06:34;;;;;;;4.75;4.35;;;13.70;99.90;;;;;;4970271;28;20771;-77
2023/08/05 04:09:00;;;;;;;4.77;3.93;;;13.90;99.90;;;;;;4971302;28;20523;-77
2023/08/05 04:11:26;;;;;;;5.33;4.30;;;13.80;99.90;;;;;;4979114;28;20384;-77
2023/08/05 04:13:52;;;;;;;6.22;4.60;;;13.90;99.90;;;;;;4979525;28;20468;-77
2023/08/05 04:16:19;;;;;;;5.00;4.60;;;14.00;99.90;;;;;;4961129;28;20418;-77
2023/08/05 04:18:48;;;;;;;4.60;4.20;;;14.00;99.90;;;;;;4963671;28;20404;-77
2023/08/05 04:21:14;;;;;;;5.17;4.33;;;14.00;99.90;;;;;;4970875;28;20404;-78
2023/08/05 04:23:41;;;;;;;4.03;3.63;;;14.10;99.90;;;;;;4972219;28;20392;-78
2023/08/05 04:26:07;;;;;;;4.63;4.22;;;14.00;99.90;;;;;;4972339;28;20395;-77
2023/08/05 04:28:33;;;;;;;5.97;4.38;;;13.90;99.90;;;;;;4963316;28;20414;-78
2023/08/05 04:30:59;;;;;;;6.55;4.40;;;14.10;99.90;;;;;;4952829;29;20402;-78
2023/08/05 04:33:28;;;;;;;4.50;4.10;;;14.00;99.90;;;;;;4964283;28;20892;-77
2023/08/05 04:35:54;;;;;;;4.38;3.97;;;13.90;99.90;;;;;;4973197;28;20412;-77
2023/08/05 04:38:20;;;;;;;4.28;3.95;;;14.10;99.90;;;;;;4979130;28;20399;-77
2023/08/05 04:40:45;;;;;;;5.10;3.65;;;14.00;99.90;;;;;;4970911;28;20424;-77
2023/08/05 04:43:12;;;;;;;3.42;3.13;;;13.80;99.90;;;;;;4977645;28;20847;-78
2023/08/05 04:45:37;;;;;;;6.15;4.25;;;13.90;99.90;;;;;;4956825;28;20891;-78
2023/08/05 04:48:05;;;;;;;4.50;3.90;;;14.10;99.90;;;;;;4968630;28;20404;-78
2023/08/05 04:50:30;;;;;;;5.10;4.57;;;14.00;99.90;;;;;;4967191;28;20406;-78
2023/08/05 04:52:56;;;;;;;4.80;4.10;;;13.80;99.90;;;;;;4951445;29;20394;-78
2023/08/05 04:55:21;;;;;;;4.90;3.90;;;14.00;99.90;;;;;;4952961;29;20436;-78
2023/08/05 04:57:52;;;;;;;4.15;3.75;;;14.00;99.90;;;;;;4952324;28;20390;-78
2023/08/05 05:00:18;;;;;;;5.85;4.40;;;14.00;99.90;;;;;;4954129;28;20445;-77
2023/08/05 05:02:43;;;;;;;4.73;4.33;;;14.00;99.90;;;;;;4971633;28;20816;-78
2023/08/05 05:05:09;;;;;;;6.33;4.20;;;14.00;99.90;;;;;;4952674;28;20964;-78
2023/08/05 05:07:34;;;;;;;5.90;4.10;;;14.00;99.90;;;;;;4952482;28;20727;-77
2023/08/05 05:10:00;;;;;;;4.88;4.30;;;14.00;99.90;;;;;;4962722;28;20400;-77
2023/08/05 05:12:26;;;;;;;5.35;4.18;;;14.00;99.90;;;;;;4970721;28;20467;-77
2023/08/05 05:14:51;;;;;;;5.15;4.32;;;13.90;99.90;;;;;;4971731;28;20831;-78
2023/08/05 05:17:17;;;;;;;4.60;4.20;;;14.10;99.90;;;;;;4973290;28;20407;-78
2023/08/05 05:19:43;;;;;;;5.30;4.55;;;14.00;99.90;;;;;;4966512;28;20481;-77
2023/08/05 05:22:10;;;;;;;4.75;4.30;;;13.80;99.90;;;;;;4955420;28;20448;-77
2023/08/05 05:24:35;;;;;;;5.00;4.50;;;14.10;99.90;;;;;;4960318;28;20402;-78
2023/08/05 05:27:01;;;;;;;5.03;4.53;;;14.10;99.90;;;;;;4956091;28;20762;-77
2023/08/05 05:29:30;;;;;;;6.18;4.10;;;14.00;99.90;;;;;;4956713;29;20452;-78
2023/08/05 05:31:55;;;;;;;5.00;4.50;;;14.10;99.90;;;;;;4955510;29;20440;-78
2023/08/05 05:34:21;;;;;;;4.93;4.47;;;14.00;99.90;;;;;;4969805;28;20441;-78
2023/08/05 05:36:46;;;;;;;5.40;4.22;;;14.10;99.90;;;;;;4955575;28;20424;-77
2023/08/05 05:39:12;;;;;;;5.30;4.20;;;14.20;99.90;;;;;;4970985;28;20422;-77
2023/08/05 05:41:38;;;;;;;4.70;4.20;;;14.10;99.90;;;;;;4974668;28;20394;-77
2023/08/05 05:44:04;;;;;;;5.77;4.10;;;14.20;99.90;;;;;;4974982;28;20426;-77
2023/08/05 05:46:33;;;;;;;5.18;4.30;;;14.30;99.90;;;;;;4974915;28;20388;-78
2023/08/05 05:48:59;;;;;;;5.30;4.55;;;14.40;99.90;;;;;;4965023;28;20918;-77
2023/08/05 05:51:25;;;;;;;5.80;4.63;;;14.10;99.90;;;;;;4974909;28;20416;-77
2023/08/05 05:53:55;;;;;;;5.75;4.70;;;14.40;99.90;;;;;;4976557;28;20392;-77
2023/08/05 05:56:20;;;;;;;5.80;5.10;;;14.40;99.90;;;;;;4976969;28;20836;-77
2023/08/05 05:58:46;;;;;;;7.10;4.57;;;14.10;99.90;;;;;;4975123;28;20471;-77
2023/08/05 06:01:11;;;;;;;5.00;4.60;;;14.70;99.90;;;;;;4956263;29;20770;-77
2023/08/05 06:03:38;;;;;;;5.20;4.03;;;14.50;99.90;;;;;;4951104;29;20391;-80
2023/08/05 06:06:04;;;;;;;4.50;3.90;;;14.70;99.90;;;;;;4937321;29;20403;-78
2023/08/05 06:08:30;;;;;;;7.20;4.40;;;14.70;99.90;;;;;;4949456;28;20400;-78
2023/08/05 06:10:55;;;;;;;6.40;4.33;;;14.70;99.90;;;;;;4956760;29;20401;-78
2023/08/05 06:13:21;;;;;;;5.00;4.50;;;14.70;99.90;;;;;;4955710;29;20401;-78
2023/08/05 06:15:46;;;;;;;5.50;4.20;;;14.80;99.90;;;;;;4956810;29;20409;-78
2023/08/05 06:18:12;;;;;;;4.85;3.78;;;14.90;99.90;;;;;;4964159;28;20415;-78
2023/08/05 06:20:38;;;;;;;4.80;4.30;;;14.90;99.90;;;;;;4974671;28;20396;-78
2023/08/05 06:23:06;;;;;;;5.17;4.43;;;14.90;99.90;;;;;;4975910;28;20753;-78
2023/08/05 06:25:32;;;;;;;6.35;4.60;;;14.70;99.90;;;;;;4976603;28;20407;-78
2023/08/05 06:27:57;;;;;;;5.47;4.30;;;15.00;99.90;;;;;;4961533;28;20806;-78
2023/08/05 06:30:23;;;;;;;4.80;4.40;;;14.70;99.90;;;;;;4956912;29;20534;-78
2023/08/05 06:32:48;;;;;;;4.72;4.30;;;15.10;99.90;;;;;;4956525;29;20394;-78
2023/08/05 06:35:14;;;;;;;4.70;4.30;;;14.70;99.90;;;;;;4956474;29;20492;-78
2023/08/05 06:37:39;;;;;;;4.80;4.40;;;15.10;99.90;;;;;;4966493;28;20462;-78
2023/08/05 06:40:05;;;;;;;4.73;4.20;;;15.00;99.90;;;;;;4976101;28;20904;-78
2023/08/05 06:42:31;;;;;;;5.45;3.85;;;15.20;99.90;;;;;;4977349;28;20942;-78
2023/08/05 06:44:57;;;;;;;6.53;4.40;;;15.30;99.90;;;;;;4957728;28;20406;-78
2023/08/05 06:47:22;;;;;;;4.20;3.80;;;15.30;99.90;;;;;;4957067;28;20953;-78
2023/08/05 06:49:49;;;;;;;3.90;3.60;;;15.50;99.90;;;;;;4959172;29;20794;-78
2023/08/05 06:52:15;;;;;;;5.32;4.35;;;15.50;99.90;;;;;;4955729;29;20404;-78
2023/08/05 06:54:40;;;;;;;7.00;4.30;;;15.20;99.90;;;;;;4959932;28;20461;-78
2023/08/05 06:57:06;;;;;;;4.50;3.90;;;15.60;99.90;;;;;;4955506;28;20464;-78
2023/08/05 06:59:33;;;;;;;4.40;4.00;;;15.70;99.90;;;;;;4956499;28;20405;-78
2023/08/05 07:02:00;;;;;;;5.30;4.40;;;15.80;99.90;;;;;;4953867;29;20428;-77
2023/08/05 07:04:25;;;;;;;4.70;4.20;;;15.80;99.90;;;;;;4948772;28;20418;-77
2023/08/05 07:06:51;;;;;;;4.50;3.80;;;15.80;99.90;;;;;;4953809;28;20461;-77
2023/08/05 07:09:16;;;;;;;5.67;3.67;;;16.00;99.90;;;;;;4954938;28;20409;-77
2023/08/05 07:11:42;;;;;;;4.70;4.30;;;16.00;99.90;;;;;;4972561;28;20463;-77
2023/08/05 07:14:07;;;;;;;4.35;3.95;;;16.30;99.90;;;;;;4973343;28;20392;-77
2023/08/05 07:16:33;;;;;;;4.53;4.13;;;16.30;99.90;;;;;;4973577;28;20415;-77
2023/08/05 07:18:58;;;;;;;4.50;4.07;;;16.30;99.90;;;;;;4972955;28;20573;-77
2023/08/05 07:21:24;;;;;;;5.57;4.23;;;16.30;99.90;;;;;;4955246;28;20397;-77
2023/08/05 07:23:50;;;;;;;4.43;4.03;;;16.50;99.90;;;;;;4955483;29;20392;-78
2023/08/05 07:26:16;;;;;;;5.28;4.40;;;15.80;99.90;;;;;;4961909;28;20399;-78
2023/08/05 07:28:42;;;;;;;4.43;4.03;;;16.40;99.90;;;;;;4974898;28;20392;-78
2023/08/05 07:31:10;;;;;;;4.47;3.53;;;16.70;99.90;;;;;;4973661;28;20447;-78
2023/08/05 07:33:36;;;;;;;4.93;4.47;;;16.60;99.90;;;;;;4974309;28;20476;-79
2023/08/05 07:36:12;;;;;;;4.72;4.03;;;16.60;99.90;;;;;;4970712;28;20426;-78
2023/08/05 07:38:43;;;;;;;5.38;4.30;;;16.60;99.90;;;;;;4954643;28;20902;-78
2023/08/05 07:41:09;;;;;;;6.28;4.80;;;16.70;99.90;;;;;;4953648;28;20412;-78
2023/08/05 07:43:38;;;;;;;4.50;4.10;;;16.90;99.90;;;;;;4969137;28;20411;-78
2023/08/05 07:46:05;;;;;;;5.88;4.00;;;16.90;99.90;;;;;;4977680;28;20392;-78
2023/08/05 07:48:35;;;;;;;4.80;4.30;;;16.80;99.90;;;;;;4979174;28;20487;-78
2023/08/05 07:51:02;;;;;;;4.38;4.00;;;16.60;99.90;;;;;;4985511;28;20395;-77
2023/08/05 07:53:29;;;;;;;4.57;3.80;;;16.70;99.90;;;;;;4965814;28;20414;-78
2023/08/05 07:55:55;;;;;;;4.32;3.95;;;16.90;99.90;;;;;;4963518;29;20414;-77
2023/08/05 07:58:21;;;;;;;6.30;4.55;;;16.90;99.90;;;;;;4960438;28;20429;-77
2023/08/05 08:00:47;;;;;;;4.15;3.85;;;16.90;99.90;;;;;;4972120;28;20904;-77
2023/08/05 08:03:12;;;;;;;4.60;3.95;;;17.00;99.90;;;;;;4975515;28;20814;-78
2023/08/05 08:05:38;;;;;;;4.67;4.17;;;16.90;99.90;;;;;;4961788;29;20397;-77
2023/08/05 08:08:03;;;;;;;5.03;4.32;;;16.90;99.90;;;;;;4965996;28;20396;-77
2023/08/05 08:10:29;;;;;;;5.60;4.75;;;16.80;99.90;;;;;;4959483;28;20394;-77
2023/08/05 08:12:54;;;;;;;5.00;4.50;;;16.80;99.90;;;;;;4953362;29;20401;-77
2023/08/05 08:15:21;;;;;;;4.88;4.47;;;17.10;99.90;;;;;;4953051;29;20400;-77
2023/08/05 08:17:46;;;;;;;5.43;4.50;;;17.10;99.90;;;;;;4961649;28;20408;-77
2023/08/05 08:20:12;;;;;;;4.55;4.18;;;17.20;99.90;;;;;;4972861;28;20382;-77
2023/08/05 08:22:38;;;;;;;4.43;3.90;;;17.10;99.90;;;;;;4979733;28;20423;-78
2023/08/05 08:25:04;;;;;;;5.30;3.90;;;17.10;99.90;;;;;;4984622;28;20455;-78
2023/08/05 08:27:30;;;;;;;4.20;3.90;;;17.00;99.90;;;;;;4977814;28;20461;-77
2023/08/05 08:29:55;;;;;;;4.50;4.10;;;16.20;99.90;;;;;;4958697;28;20898;-78
2023/08/05 08:32:21;;;;;;;4.40;4.00;;;16.90;99.90;;;;;;4959687;28;20481;-78
2023/08/05 08:34:46;;;;;;;5.07;4.35;;;17.00;99.90;;;;;;4971734;28;20392;-78
2023/08/05 08:37:12;;;;;;;4.20;3.77;;;16.70;99.90;;;;;;4972486;28;20463;-78
2023/08/05 08:39:37;;;;;;;5.32;4.75;;;16.80;99.90;;;;;;4989982;23;20470;-78
2023/08/05 08:42:03;;;;;;;4.20;3.90;;;17.30;99.90;;;;;;4977359;28;20839;-78
2023/08/05 08:44:31;;;;;;;4.13;3.80;;;17.80;99.90;;;;;;4994498;28;20382;-79
2023/08/05 08:46:57;;;;;;;3.85;3.55;;;17.90;99.90;;;;;;4993543;28;20386;-79
2023/08/05 08:49:23;;;;;;;4.40;4.00;;;18.20;99.90;;;;;;4997515;28;20397;-77
2023/08/05 08:51:50;;;;;;;4.30;3.90;;;17.90;99.90;;;;;;4989723;28;20917;-78
2023/08/05 08:54:16;;;;;;;3.85;3.50;;;17.50;99.90;;;;;;4981901;28;20391;-78
2023/08/05 08:56:42;;;;;;;4.63;3.70;;;17.80;99.90;;;;;;4981623;28;20408;-80
2023/08/05 08:59:08;;;;;;;4.20;3.80;;;17.40;99.90;;;;;;4963126;28;20407;-79
2023/08/05 09:01:41;;;;;;;4.40;3.90;;;17.70;99.90;;;;;;4966653;28;20402;-79
2023/08/05 09:04:08;;;;;;;4.37;3.97;;;17.80;99.90;;;;;;4988253;28;20403;-81
2023/08/05 09:06:37;;;;;;;4.10;3.70;;;17.70;99.90;;;;;;4987901;28;20417;-80
2023/08/05 09:09:02;;;;;;;4.40;4.00;;;17.80;99.90;;;;;;4982410;28;20491;-79
2023/08/05 09:11:28;;;;;;;4.28;3.88;;;17.70;99.90;;;;;;4999701;28;20434;-79
2023/08/05 09:13:53;;;;;;;4.60;4.20;;;17.10;99.90;;;;;;4981294;28;20410;-79
2023/08/05 09:16:19;;;;;;;4.20;3.80;;;17.70;99.90;;;;;;4992820;28;20803;-81
2023/08/05 09:18:54;;;;;;;4.80;4.20;;;17.90;99.90;;;;;;5003971;28;20398;-81
2023/08/05 09:21:27;;;;;;;4.57;3.70;;;18.00;99.90;;;;;;5010237;28;20454;-80
2023/08/05 09:23:54;;;;;;;5.13;3.67;;;17.70;99.90;;;;;;5003691;28;20382;-81
2023/08/05 09:26:31;;;;;;;4.78;3.95;;;18.10;99.90;;;;;;4997797;28;20403;-80
2023/08/05 09:28:57;;;;;;;4.37;3.63;;;17.40;99.90;;;;;;4982721;28;20400;-79
2023/08/05 09:31:23;;;;;;;5.13;3.90;;;18.00;99.90;;;;;;4996487;28;20798;-80
2023/08/05 09:33:49;;;;;;;3.97;3.58;;;18.20;99.90;;;;;;5001195;28;20401;-80
2023/08/05 09:36:15;;;;;;;4.00;3.60;;;18.10;99.90;;;;;;5002525;28;20403;-81
2023/08/05 09:38:44;;;;;;;4.17;3.77;;;18.00;99.90;;;;;;5002015;28;20421;-80
2023/08/05 09:41:11;;;;;;;3.90;3.60;;;18.40;99.90;;;;;;4988816;28;20781;-79
2023/08/05 09:43:45;;;;;;;3.75;3.45;;;18.60;99.90;;;;;;4982471;28;20460;-80
2023/08/05 09:46:14;;;;;;;3.90;3.40;;;18.70;99.90;;;;;;4981645;28;20857;-80
2023/08/05 09:48:43;;;;;;;4.30;3.50;;;19.10;99.90;;;;;;4986618;28;20909;-80
2023/08/05 09:51:15;;;;;;;3.80;3.40;;;18.80;99.90;;;;;;5002506;28;20390;-81
2023/08/05 09:53:41;;;;;;;4.00;3.70;;;19.60;99.90;;;;;;4982976;28;20489;-80
2023/08/05 09:56:09;;;;;;;6.38;3.85;;;18.70;99.90;;;;;;4984202;28;20402;-80
2023/08/05 09:58:37;;;;;;;5.05;4.00;;;19.30;99.90;;;;;;4980446;28;20911;-80
2023/08/05 10:01:07;;;;;;;3.50;3.20;;;19.10;99.90;;;;;;4965362;28;20396;-79
2023/08/05 10:03:39;;;;;;;3.50;3.30;;;18.90;99.90;;;;;;4981922;28;20392;-80
2023/08/05 10:06:06;;;;;;;3.90;3.60;;;19.10;99.90;;;;;;4983033;28;20540;-80
2023/08/05 10:08:32;;;;;;;3.50;3.20;;;18.60;99.90;;;;;;4984742;28;20507;-80
2023/08/05 10:10:59;;;;;;;5.30;3.40;;;18.60;99.90;;;;;;5002262;28;20890;-80
2023/08/05 10:13:25;;;;;;;4.10;3.40;;;19.30;99.90;;;;;;5001630;28;20382;-80
2023/08/05 10:15:53;;;;;;;5.45;3.40;;;20.10;99.90;;;;;;4971841;28;20518;-80
2023/08/05 10:18:20;;;;;;;4.05;3.40;;;18.90;99.90;;;;;;4968301;28;20396;-82
2023/08/05 10:20:53;;;;;;;3.85;3.50;;;20.80;99.90;;;;;;4967695;28;20415;-82
2023/08/05 10:23:18;;;;;;;3.50;3.20;;;19.60;99.90;;;;;;4966967;28;20392;-82
2023/08/05 10:25:49;;;;;;;3.30;3.10;;;18.90;99.90;;;;;;4973816;28;20428;-81
2023/08/05 10:28:23;;;;;;;3.78;3.15;;;19.60;99.90;;;;;;4984507;28;20493;-80
2023/08/05 10:30:50;;;;;;;4.90;3.28;;;19.50;99.90;;;;;;4981487;28;20974;-81
2023/08/05 10:33:16;;;;;;;4.18;3.72;;;20.40;99.90;;;;;;4980818;28;20431;-80
2023/08/05 10:35:43;;;;;;;6.65;3.53;;;19.50;99.90;;;;;;4990599;28;20412;-80
2023/08/05 10:38:22;;;;;;;2.72;2.53;;;19.80;99.90;;;;;;4973916;28;20412;-81
2023/08/05 10:40:51;;;;;;;4.18;3.00;;;19.80;99.90;;;;;;4968240;28;20472;-80
2023/08/05 10:43:35;;;;;;;3.50;3.10;;;19.90;99.90;;;;;;4979307;28;20759;-81
2023/08/05 10:46:06;;;;;;;3.65;3.20;;;20.10;99.90;;;;;;4987378;28;20467;-81
2023/08/05 10:48:38;;;;;;;3.40;2.75;;;19.60;99.90;;;;;;4972332;28;20402;-81
2023/08/05 10:51:27;;;;;;;3.88;3.30;;;19.30;99.90;;;;;;4987180;28;20423;-81
2023/08/05 10:53:55;;;;;;;3.10;2.90;;;19.90;99.90;;;;;;4974909;28;20422;-80
2023/08/05 10:56:29;;;;;;;3.30;3.00;;;19.40;99.90;;;;;;4981203;28;20423;-79
2023/08/05 10:58:54;;;;;;;3.42;3.00;;;19.40;99.90;;;;;;4978626;28;20394;-79
2023/08/05 11:01:20;;;;;;;3.30;3.00;;;20.20;99.90;;;;;;4993737;28;20415;-79
2023/08/05 11:03:50;;;;;;;3.28;2.97;;;20.40;99.90;;;;;;4991659;28;20489;-80
2023/08/05 11:06:22;;;;;;;3.53;3.08;;;20.60;99.90;;;;;;4986662;28;20397;-80
2023/08/05 11:08:48;;;;;;;3.03;2.83;;;21.70;99.90;;;;;;4988875;28;20407;-81
2023/08/05 11:11:14;;;;;;;3.22;2.90;;;20.40;99.90;;;;;;4976030;28;20406;-79
2023/08/05 11:13:46;;;;;;;2.95;2.75;;;21.40;99.90;;;;;;4987919;28;20404;-80
2023/08/05 11:16:15;;;;;;;3.20;2.90;;;20.70;99.90;;;;;;4985332;28;20480;-80
2023/08/05 11:18:45;;;;;;;4.67;3.10;;;20.70;99.90;;;;;;4986475;28;20402;-81
2023/08/05 11:21:13;;;;;;;3.00;2.70;;;21.20;99.90;;;;;;4975735;28;20459;-80
2023/08/05 11:23:44;;;;;;;2.80;2.60;;;21.10;99.90;;;;;;4973149;28;20430;-81
2023/08/05 11:26:11;;;;;;;2.90;2.70;;;21.10;99.90;;;;;;4988584;28;20431;-81
2023/08/05 11:28:45;;;;;;;3.38;2.90;;;21.50;99.90;;;;;;4988053;28;20416;-81
2023/08/05 11:31:25;;;;;;;3.10;2.80;;;22.00;99.90;;;;;;4975985;28;20407;-80
2023/08/05 11:33:52;;;;;;;4.68;2.75;;;21.60;99.90;;;;;;4976712;28;20431;-81
2023/08/05 11:36:24;;;;;;;2.60;2.40;;;20.90;99.90;;;;;;4974723;28;20904;-81
2023/08/05 11:38:50;;;;;;;2.80;2.60;;;21.50;99.90;;;;;;4986149;28;20400;-81
2023/08/05 11:41:16;;;;;;;4.20;3.03;;;20.30;99.90;;;;;;4971273;28;20433;-82
2023/08/05 11:43:42;;;;;;;3.00;2.60;;;22.30;99.90;;;;;;4986551;28;20416;-81
2023/08/05 11:46:22;;;;;;;3.30;2.53;;;22.80;99.90;;;;;;4986308;28;20446;-81
2023/08/05 11:48:48;;;;;;;2.63;2.20;;;24.00;99.90;;;;;;4989279;28;20483;-81
2023/08/05 11:51:13;;;;;;;2.67;2.47;;;23.20;1.00;;;;;;4969899;28;20400;-78
2023/08/05 11:53:47;;;;;;;2.42;1.92;;;23.20;1.00;;;;;;4984160;28;20455;-79
2023/08/05 11:56:22;;;;;;;3.35;2.03;;;22.10;1.00;;;;;;4969434;28;20423;-79
2023/08/05 11:58:48;;;;;;;2.30;2.10;;;23.80;1.00;;;;;;4971952;28;20403;-80
2023/08/05 12:01:14;;;;;;;2.30;2.10;;;24.00;1.00;;;;;;4971312;28;20483;-79
2023/08/05 12:03:40;;;;;;;3.00;2.23;;;23.90;1.00;;;;;;4986641;28;20457;-79
2023/08/05 12:06:06;;;;;;;2.30;2.10;;;22.90;1.00;;;;;;4985626;28;20399;-83
2023/08/05 12:08:42;;;;;;;2.80;2.23;;;24.00;1.00;;;;;;4979084;28;20396;-80
2023/08/05 12:11:08;;;;;;;2.10;1.90;;;24.00;1.00;;;;;;4967049;28;20880;-81
2023/08/05 12:13:34;;;;;;;2.15;2.00;;;23.80;1.00;;;;;;4969887;28;20424;-80
2023/08/05 12:16:00;;;;;;;3.00;2.20;;;23.70;1.00;;;;;;4976200;28;20448;-81
2023/08/05 12:18:26;;;;;;;1.90;1.70;;;24.50;1.00;;;;;;4973898;28;20392;-79
2023/08/05 12:20:51;;;;;;;2.30;2.10;;;24.30;99.90;;;;;;4973990;28;20408;-79
2023/08/05 12:23:17;;;;;;;2.03;1.92;;;24.80;1.00;;;;;;4986592;28;20388;-80
2023/08/05 12:25:42;;;;;;;2.67;2.40;;;24.60;1.00;;;;;;4970311;28;20463;-79
2023/08/05 12:28:08;;;;;;;2.65;2.30;;;24.40;28.30;;;;;;4971955;28;20405;-79
2023/08/05 12:30:34;;;;;;;2.30;2.10;;;23.50;99.90;;;;;;4987026;28;20452;-78
2023/08/05 12:32:59;;;;;;;2.72;2.10;;;21.80;99.90;;;;;;4970985;28;20400;-78
2023/08/05 12:35:25;;;;;;;2.13;2.03;;;22.10;99.90;;;;;;4987387;28;20403;-80
2023/08/05 12:37:52;;;;;;;2.90;2.00;;;22.60;99.90;;;;;;4984402;28;20443;-79
2023/08/05 12:40:17;;;;;;;2.60;2.10;;;23.30;99.90;;;;;;4986604;28;20404;-79
2023/08/05 12:42:43;;;;;;;2.07;1.97;;;23.60;99.90;;;;;;4971334;28;20412;-80
2023/08/05 12:45:09;;;;;;;2.60;1.90;;;24.00;99.90;;;;;;4984481;28;20475;-79